Time;durP1;ratioP1;P1;durP2;ratioP2;P2;SDS_P1;SDS_P2;PMS_P1;PMS_P2;Temp;Humidity;BMP_temperature;BMP_pressure;BME280_temperature;BME280_humidity;BME280_pressure;Samples;Min_cycle;Max_cycle;Signal;HPM_P1;HPM_P2
2020/12/25 00:01:06;;;;;;;2.03;0.90;;;10.70;81.40;;;;;;5030928;28;20050;-43
2020/12/25 00:03:33;;;;;;;2.00;0.95;;;10.70;81.40;;;;;;5030794;28;20482;-42
2020/12/25 00:05:58;;;;;;;1.88;1.00;;;10.70;81.40;;;;;;5016209;28;20104;-44
2020/12/25 00:08:24;;;;;;;1.83;1.17;;;10.70;81.40;;;;;;5012795;28;20054;-40
2020/12/25 00:10:54;;;;;;;1.08;0.98;;;10.70;81.40;;;;;;5025914;28;20537;-48
2020/12/25 00:13:19;;;;;;;3.88;1.13;;;10.70;81.40;;;;;;5032774;28;20049;-48
2020/12/25 00:15:46;;;;;;;1.27;0.73;;;10.70;81.40;;;;;;5032463;28;20402;-42
2020/12/25 00:18:12;;;;;;;1.00;0.90;;;10.70;81.40;;;;;;5032494;28;20053;-46
2020/12/25 00:20:38;;;;;;;1.35;0.90;;;10.70;81.40;;;;;;5032433;28;20045;-44
2020/12/25 00:23:03;;;;;;;1.05;0.77;;;10.70;81.40;;;;;;5030628;28;20053;-45
2020/12/25 00:25:29;;;;;;;1.45;1.00;;;10.70;81.40;;;;;;5011380;28;20046;-47
2020/12/25 00:27:55;;;;;;;1.35;1.13;;;10.70;82.10;;;;;;5012528;28;20193;-47
2020/12/25 00:30:21;;;;;;;1.65;0.80;;;10.70;81.40;;;;;;5024003;28;20046;-45
2020/12/25 00:32:46;;;;;;;1.75;1.00;;;10.70;81.50;;;;;;5030812;28;20054;-43
2020/12/25 00:35:12;;;;;;;1.55;0.90;;;10.70;81.50;;;;;;5032067;28;20048;-41
2020/12/25 00:37:38;;;;;;;2.42;1.17;;;10.70;81.40;;;;;;5032642;28;20061;-47
2020/12/25 00:40:04;;;;;;;2.25;0.73;;;10.70;81.50;;;;;;5027148;28;20466;-48
2020/12/25 00:42:30;;;;;;;1.10;0.82;;;10.70;81.50;;;;;;5021396;28;20084;-42
2020/12/25 00:44:55;;;;;;;2.65;1.02;;;10.70;81.50;;;;;;5032690;28;20054;-45
2020/12/25 00:47:21;;;;;;;1.00;0.75;;;10.70;81.50;;;;;;5016324;28;20391;-43
2020/12/25 00:49:46;;;;;;;2.28;1.25;;;10.70;81.50;;;;;;4998459;28;20064;-46
2020/12/25 00:52:12;;;;;;;1.90;0.90;;;10.70;81.50;;;;;;5016182;28;20576;-43
2020/12/25 00:54:38;;;;;;;0.75;0.55;;;10.70;81.60;;;;;;5016785;28;20046;-43
2020/12/25 00:57:03;;;;;;;1.55;0.70;;;10.70;81.50;;;;;;5015815;28;20057;-45
2020/12/25 00:59:29;;;;;;;1.48;0.88;;;10.70;81.50;;;;;;5033725;28;20057;-45
2020/12/25 01:01:55;;;;;;;0.90;0.70;;;10.70;81.50;;;;;;5033658;28;20140;-44
2020/12/25 01:04:21;;;;;;;1.63;0.70;;;10.70;81.50;;;;;;5000022;28;20042;-44
2020/12/25 01:06:46;;;;;;;1.95;0.93;;;10.70;81.50;;;;;;5016097;28;20046;-41
2020/12/25 01:09:12;;;;;;;3.13;1.00;;;10.70;81.50;;;;;;5017043;28;20062;-40
2020/12/25 01:11:39;;;;;;;1.42;0.82;;;10.70;81.50;;;;;;5020459;28;20077;-50
2020/12/25 01:14:05;;;;;;;0.88;0.70;;;10.70;81.50;;;;;;5018405;28;20100;-44
2020/12/25 01:16:31;;;;;;;1.55;0.77;;;10.60;81.50;;;;;;5025967;28;20536;-51
2020/12/25 01:18:56;;;;;;;0.93;0.60;;;10.60;81.50;;;;;;5015702;28;20415;-44
2020/12/25 01:21:22;;;;;;;0.75;0.70;;;10.70;81.60;;;;;;5017858;28;20057;-45
2020/12/25 01:23:48;;;;;;;0.82;0.60;;;10.60;81.50;;;;;;5015421;28;20066;-47
2020/12/25 01:26:13;;;;;;;1.02;0.80;;;10.70;81.60;;;;;;5015813;28;20054;-46
2020/12/25 01:28:39;;;;;;;0.60;0.60;;;10.70;81.50;;;;;;5015308;28;20060;-48
2020/12/25 01:31:05;;;;;;;1.15;0.65;;;10.60;81.50;;;;;;4997695;28;20042;-51
2020/12/25 01:33:32;;;;;;;1.77;0.80;;;10.60;81.50;;;;;;5027619;28;20409;-48
2020/12/25 01:35:59;;;;;;;1.17;0.52;;;10.70;81.60;;;;;;5019400;28;20065;-50
2020/12/25 01:38:25;;;;;;;1.88;0.70;;;10.60;81.60;;;;;;5018601;28;20136;-44
2020/12/25 01:40:51;;;;;;;0.63;0.55;;;10.60;81.50;;;;;;5034711;28;20125;-46
2020/12/25 01:43:17;;;;;;;0.55;0.50;;;10.60;81.50;;;;;;5034258;28;20041;-41
2020/12/25 01:45:42;;;;;;;1.10;0.50;;;10.60;81.50;;;;;;5032962;28;20128;-47
2020/12/25 01:48:08;;;;;;;1.77;1.08;;;10.60;81.50;;;;;;5034473;28;20540;-40
2020/12/25 01:50:35;;;;;;;0.68;0.60;;;10.60;81.50;;;;;;5034667;28;20046;-44
2020/12/25 01:53:02;;;;;;;0.55;0.50;;;10.60;81.50;;;;;;5035009;28;20053;-41
2020/12/25 01:55:31;;;;;;;0.98;0.70;;;10.60;81.70;;;;;;5033276;28;20099;-44
2020/12/25 01:57:59;;;;;;;1.27;0.60;;;10.60;81.50;;;;;;5032566;28;20053;-40
2020/12/25 02:00:27;;;;;;;1.98;0.73;;;10.60;81.60;;;;;;5034820;28;20095;-43
2020/12/25 02:02:52;;;;;;;1.02;0.60;;;10.60;81.60;;;;;;5022841;28;20049;-41
2020/12/25 02:05:18;;;;;;;1.80;0.77;;;10.60;81.50;;;;;;5031497;28;20528;-40
2020/12/25 02:07:44;;;;;;;0.75;0.60;;;10.60;81.60;;;;;;5032574;28;20056;-44
2020/12/25 02:10:11;;;;;;;0.98;0.70;;;10.60;81.60;;;;;;5034285;28;20046;-43
2020/12/25 02:12:38;;;;;;;1.83;0.60;;;10.60;81.50;;;;;;5025239;28;20145;-43
2020/12/25 02:15:05;;;;;;;0.50;0.50;;;10.60;81.60;;;;;;5015703;28;20046;-44
2020/12/25 02:17:30;;;;;;;1.42;0.75;;;10.60;81.50;;;;;;5007712;28;20077;-43
2020/12/25 02:19:56;;;;;;;0.80;0.63;;;10.60;81.60;;;;;;5020058;28;20077;-41
2020/12/25 02:22:22;;;;;;;0.50;0.50;;;10.60;81.60;;;;;;5034247;28;20057;-40
2020/12/25 02:24:48;;;;;;;0.70;0.60;;;10.60;81.60;;;;;;5029496;28;20052;-41
2020/12/25 02:27:13;;;;;;;0.63;0.60;;;10.60;81.50;;;;;;5013715;28;20108;-43
2020/12/25 02:29:40;;;;;;;1.40;0.60;;;10.60;81.50;;;;;;5026033;28;20545;-42
2020/12/25 02:32:05;;;;;;;0.65;0.50;;;10.60;81.50;;;;;;5034182;28;20041;-41
2020/12/25 02:34:31;;;;;;;0.98;0.50;;;10.60;81.50;;;;;;5033912;28;20045;-42
2020/12/25 02:36:57;;;;;;;0.75;0.70;;;10.60;81.50;;;;;;5034142;28;20386;-43
2020/12/25 02:39:23;;;;;;;0.70;0.57;;;10.60;81.50;;;;;;5033932;28;20057;-41
2020/12/25 02:41:49;;;;;;;1.48;0.70;;;10.60;81.50;;;;;;5033422;28;20407;-40
2020/12/25 02:44:14;;;;;;;0.95;0.65;;;10.60;81.50;;;;;;5021392;28;20469;-44
2020/12/25 02:46:40;;;;;;;0.70;0.52;;;10.60;81.50;;;;;;5014555;28;20046;-44
2020/12/25 02:49:06;;;;;;;0.70;0.50;;;10.60;81.50;;;;;;5028640;28;20042;-45
2020/12/25 02:51:31;;;;;;;1.40;0.70;;;10.60;81.50;;;;;;5024039;28;20049;-40
2020/12/25 02:53:57;;;;;;;0.50;0.50;;;10.60;81.50;;;;;;5031958;28;20544;-45
2020/12/25 02:56:23;;;;;;;1.25;1.15;;;10.60;81.50;;;;;;5033541;28;20041;-45
2020/12/25 02:58:48;;;;;;;0.70;0.65;;;10.60;81.50;;;;;;5032850;28;20053;-42
2020/12/25 03:01:15;;;;;;;0.98;0.70;;;10.60;81.50;;;;;;5031691;28;20053;-45
2020/12/25 03:03:41;;;;;;;2.70;0.73;;;10.60;81.60;;;;;;5033629;28;20057;-46
2020/12/25 03:06:08;;;;;;;1.65;0.52;;;10.60;81.50;;;;;;5018377;28;20115;-43
2020/12/25 03:08:36;;;;;;;0.60;0.60;;;10.60;81.50;;;;;;5033333;28;20097;-44
2020/12/25 03:11:02;;;;;;;0.88;0.68;;;10.60;81.50;;;;;;5031575;28;20052;-49
2020/12/25 03:13:28;;;;;;;1.10;0.60;;;10.60;81.50;;;;;;5032932;28;20045;-45
2020/12/25 03:15:54;;;;;;;0.30;0.30;;;10.60;81.50;;;;;;5017527;28;20057;-44
2020/12/25 03:18:20;;;;;;;0.60;0.60;;;10.60;81.50;;;;;;5024313;28;20053;-44
2020/12/25 03:20:46;;;;;;;1.08;0.70;;;10.60;81.50;;;;;;5031407;28;20042;-46
2020/12/25 03:23:12;;;;;;;1.75;0.70;;;10.60;81.50;;;;;;5033348;28;20417;-44
2020/12/25 03:25:38;;;;;;;0.90;0.57;;;10.60;81.50;;;;;;5018916;28;20475;-48
2020/12/25 03:28:04;;;;;;;0.70;0.52;;;10.60;81.50;;;;;;5013164;28;20056;-45
2020/12/25 03:30:30;;;;;;;0.70;0.50;;;10.60;81.50;;;;;;5025696;28;20111;-44
2020/12/25 03:32:56;;;;;;;1.05;0.43;;;10.60;81.50;;;;;;5027287;28;20095;-47
2020/12/25 03:35:21;;;;;;;0.82;0.40;;;10.60;81.60;;;;;;5013350;28;20050;-45
2020/12/25 03:37:47;;;;;;;0.73;0.50;;;10.60;81.50;;;;;;5013292;28;20042;-42
2020/12/25 03:40:14;;;;;;;1.17;0.60;;;10.50;81.50;;;;;;5030128;28;20076;-44
2020/12/25 03:42:39;;;;;;;0.75;0.52;;;10.50;81.50;;;;;;5031311;28;20482;-50
2020/12/25 03:45:05;;;;;;;0.57;0.57;;;10.60;81.50;;;;;;5032027;28;20045;-44
2020/12/25 03:47:31;;;;;;;0.98;0.80;;;10.60;81.50;;;;;;5032227;28;20099;-44
2020/12/25 03:49:57;;;;;;;0.63;0.50;;;10.50;81.50;;;;;;5032393;28;20490;-42
2020/12/25 03:52:23;;;;;;;1.30;0.70;;;10.60;81.50;;;;;;5030814;28;20046;-39
2020/12/25 03:54:48;;;;;;;0.55;0.50;;;10.60;81.50;;;;;;5032984;28;20522;-40
2020/12/25 03:57:14;;;;;;;1.33;0.50;;;10.60;81.50;;;;;;5031375;28;20049;-40
2020/12/25 03:59:40;;;;;;;1.20;0.50;;;10.60;81.50;;;;;;5012850;28;20066;-41
2020/12/25 04:02:05;;;;;;;0.40;0.40;;;10.60;81.50;;;;;;5031298;28;20136;-46
2020/12/25 04:04:31;;;;;;;0.75;0.43;;;10.50;81.50;;;;;;5030871;28;20456;-43
2020/12/25 04:06:57;;;;;;;0.50;0.40;;;10.50;81.50;;;;;;5025543;28;20049;-43
2020/12/25 04:09:23;;;;;;;0.52;0.40;;;10.60;81.50;;;;;;5012970;28;20141;-43
2020/12/25 04:11:49;;;;;;;0.50;0.50;;;10.60;81.60;;;;;;5013080;28;20050;-45
2020/12/25 04:14:16;;;;;;;0.85;0.50;;;10.50;81.50;;;;;;5013710;28;20049;-43
2020/12/25 04:16:42;;;;;;;0.95;0.35;;;10.60;81.60;;;;;;5014520;28;20542;-48
2020/12/25 04:19:08;;;;;;;1.92;0.65;;;10.50;81.50;;;;;;5036135;28;20083;-45
2020/12/25 04:21:35;;;;;;;0.52;0.52;;;10.50;81.50;;;;;;5026707;28;20517;-45
2020/12/25 04:24:00;;;;;;;1.50;0.60;;;10.50;81.50;;;;;;5026764;28;20132;-44
2020/12/25 04:26:26;;;;;;;1.40;0.55;;;10.50;81.50;;;;;;5036076;28;20192;-45
2020/12/25 04:28:52;;;;;;;0.75;0.65;;;10.50;81.50;;;;;;5035973;28;20080;-47
2020/12/25 04:31:17;;;;;;;1.17;0.77;;;10.50;81.50;;;;;;5016213;28;20173;-46
2020/12/25 04:33:43;;;;;;;1.88;0.45;;;10.50;81.50;;;;;;5016455;28;20100;-45
2020/12/25 04:36:08;;;;;;;1.30;0.57;;;10.50;81.50;;;;;;5033204;28;20519;-48
2020/12/25 04:38:34;;;;;;;1.40;0.60;;;10.50;81.50;;;;;;5034516;28;20429;-43
2020/12/25 04:41:01;;;;;;;0.60;0.60;;;10.50;81.50;;;;;;5035831;28;20112;-46
2020/12/25 04:43:28;;;;;;;3.30;0.50;;;10.60;81.60;;;;;;5036074;28;20080;-47
2020/12/25 04:45:54;;;;;;;0.80;0.50;;;10.50;81.50;;;;;;5033999;28;20046;-39
2020/12/25 04:48:21;;;;;;;0.52;0.50;;;10.50;81.60;;;;;;5035481;28;20056;-47
2020/12/25 04:50:47;;;;;;;0.43;0.43;;;10.50;81.60;;;;;;5035615;28;20404;-47
2020/12/25 04:53:13;;;;;;;0.63;0.40;;;10.50;81.60;;;;;;5031209;28;20120;-41
2020/12/25 04:55:38;;;;;;;1.05;0.52;;;10.50;81.60;;;;;;5035750;28;20057;-42
2020/12/25 04:58:04;;;;;;;0.32;0.32;;;10.50;81.60;;;;;;5034344;28;20057;-45
2020/12/25 05:00:30;;;;;;;0.57;0.52;;;10.50;81.60;;;;;;5035575;28;20052;-41
2020/12/25 05:02:56;;;;;;;1.52;0.50;;;10.50;81.70;;;;;;5035370;28;20506;-44
2020/12/25 05:05:30;;;;;;;0.43;0.40;;;10.50;81.60;;;;;;5035279;28;20053;-42
2020/12/25 05:07:57;;;;;;;0.82;0.50;;;10.50;81.60;;;;;;5033930;28;20401;-43
2020/12/25 05:10:23;;;;;;;0.95;0.60;;;10.50;81.60;;;;;;5024094;28;20054;-44
2020/12/25 05:12:49;;;;;;;0.50;0.40;;;10.50;81.60;;;;;;5015738;28;20470;-47
2020/12/25 05:15:14;;;;;;;0.60;0.60;;;10.50;81.60;;;;;;5015497;28;20049;-43
2020/12/25 05:17:42;;;;;;;0.85;0.55;;;10.50;81.60;;;;;;5026667;28;20045;-45
2020/12/25 05:20:08;;;;;;;1.52;0.50;;;10.50;81.60;;;;;;5034756;28;20132;-41
2020/12/25 05:22:35;;;;;;;2.40;1.40;;;10.50;81.60;;;;;;5015831;28;20104;-44
2020/12/25 05:25:03;;;;;;;0.95;0.70;;;10.50;81.60;;;;;;5023558;28;20045;-48
2020/12/25 05:27:30;;;;;;;0.60;0.50;;;10.50;81.60;;;;;;5033958;28;20452;-48
2020/12/25 05:30:00;;;;;;;1.33;0.43;;;10.50;81.60;;;;;;5025500;28;20050;-43
2020/12/25 05:32:30;;;;;;;0.77;0.52;;;10.50;81.70;;;;;;5015179;28;20122;-44
2020/12/25 05:34:57;;;;;;;0.90;0.50;;;10.50;81.60;;;;;;5022907;28;20049;-41
2020/12/25 05:37:33;;;;;;;0.60;0.40;;;10.50;81.60;;;;;;5024983;28;20122;-45
2020/12/25 05:40:03;;;;;;;0.50;0.50;;;10.50;81.70;;;;;;5016134;28;20045;-44
2020/12/25 05:42:43;;;;;;;0.68;0.55;;;10.40;81.60;;;;;;5015172;28;20052;-43
2020/12/25 05:45:09;;;;;;;0.82;0.40;;;10.50;81.70;;;;;;5015306;28;20068;-43
2020/12/25 05:47:35;;;;;;;0.63;0.40;;;10.40;81.60;;;;;;5023525;28;20530;-50
2020/12/25 05:50:00;;;;;;;0.40;0.40;;;10.50;81.70;;;;;;5016409;28;20054;-48
2020/12/25 05:52:26;;;;;;;0.55;0.50;;;10.50;81.70;;;;;;5030844;28;20042;-46
2020/12/25 05:54:55;;;;;;;1.73;0.50;;;10.40;81.60;;;;;;5004836;28;20049;-44
2020/12/25 05:57:22;;;;;;;0.40;0.40;;;10.50;81.70;;;;;;5020871;28;20107;-40
2020/12/25 05:59:53;;;;;;;1.02;0.60;;;10.50;81.70;;;;;;5016198;28;20049;-41
2020/12/25 06:02:19;;;;;;;1.50;0.45;;;10.40;81.60;;;;;;5016696;28;20050;-50
2020/12/25 06:04:46;;;;;;;1.63;0.63;;;10.50;81.60;;;;;;5034181;28;20046;-44
2020/12/25 06:07:18;;;;;;;0.35;0.35;;;10.40;81.60;;;;;;5032964;28;20042;-47
2020/12/25 06:09:45;;;;;;;1.95;0.50;;;10.50;81.70;;;;;;5020119;28;20075;-44
2020/12/25 06:12:15;;;;;;;0.50;0.35;;;10.40;81.70;;;;;;5029064;28;20133;-50
2020/12/25 06:14:40;;;;;;;0.40;0.40;;;10.50;81.70;;;;;;5014617;28;20041;-43
2020/12/25 06:17:19;;;;;;;1.80;0.75;;;10.50;81.70;;;;;;5014665;28;20046;-47
2020/12/25 06:19:58;;;;;;;0.50;0.50;;;10.40;81.60;;;;;;5014788;28;20057;-48
2020/12/25 06:22:36;;;;;;;1.08;0.38;;;10.50;81.60;;;;;;5032506;28;20079;-43
2020/12/25 06:25:06;;;;;;;1.23;0.50;;;10.50;81.60;;;;;;5025354;28;20069;-42
2020/12/25 06:27:32;;;;;;;0.55;0.55;;;10.40;81.60;;;;;;5006549;28;20054;-44
2020/12/25 06:30:01;;;;;;;1.08;0.60;;;10.50;81.70;;;;;;5021961;28;20413;-43
2020/12/25 06:32:27;;;;;;;1.75;0.47;;;10.40;81.60;;;;;;5015299;28;20042;-47
2020/12/25 06:34:59;;;;;;;0.63;0.40;;;10.50;81.60;;;;;;5021256;28;20053;-43
2020/12/25 06:37:29;;;;;;;0.70;0.47;;;10.40;81.60;;;;;;5033430;28;20053;-41
2020/12/25 06:40:06;;;;;;;0.30;0.30;;;10.40;81.60;;;;;;5032135;28;20095;-44
2020/12/25 06:42:34;;;;;;;2.50;0.73;;;10.50;81.70;;;;;;5032247;28;20060;-46
2020/12/25 06:45:06;;;;;;;0.88;0.50;;;10.40;82.30;;;;;;5033731;28;20403;-46
2020/12/25 06:47:36;;;;;;;0.57;0.57;;;10.40;81.60;;;;;;5015564;28;20046;-46
2020/12/25 06:50:13;;;;;;;0.88;0.70;;;10.40;81.60;;;;;;5019420;28;20750;-45
2020/12/25 06:53:01;;;;;;;0.52;0.43;;;10.50;81.70;;;;;;5031956;28;20144;-44
2020/12/25 06:55:42;;;;;;;0.80;0.43;;;10.50;81.70;;;;;;5021519;28;20125;-47
2020/12/25 06:58:09;;;;;;;0.50;0.40;;;10.40;81.60;;;;;;5020985;28;20075;-41
2020/12/25 07:00:35;;;;;;;1.10;0.50;;;10.40;81.60;;;;;;5033753;28;20049;-42
2020/12/25 07:03:11;;;;;;;1.15;0.52;;;10.40;81.60;;;;;;5031559;28;20050;-40
2020/12/25 07:05:46;;;;;;;1.35;0.65;;;10.40;81.60;;;;;;5032893;28;20136;-43
2020/12/25 07:08:47;;;;;;;1.00;0.70;;;10.40;81.60;;;;;;5032973;28;20050;-47
2020/12/25 07:11:12;;;;;;;2.35;0.70;;;10.40;81.60;;;;;;4972039;28;20163;-41
2020/12/25 07:13:39;;;;;;;0.57;0.50;;;10.40;81.60;;;;;;4972042;28;20047;-41
2020/12/25 07:16:05;;;;;;;3.20;0.98;;;10.40;81.60;;;;;;4971974;28;20043;-45
2020/12/25 07:18:31;;;;;;;1.20;0.70;;;10.40;81.60;;;;;;4971935;28;20078;-49
2020/12/25 07:20:58;;;;;;;1.35;0.50;;;10.40;81.60;;;;;;4972091;28;20054;-43
2020/12/25 07:23:24;;;;;;;0.68;0.40;;;10.40;81.60;;;;;;4971492;28;20061;-45
2020/12/25 07:25:52;;;;;;;2.35;0.50;;;10.40;81.60;;;;;;4971814;28;20058;-50
2020/12/25 07:28:23;;;;;;;0.60;0.60;;;10.40;81.60;;;;;;4971995;28;20142;-48
2020/12/25 07:30:49;;;;;;;1.90;0.60;;;10.40;81.60;;;;;;4971976;28;20101;-42
2020/12/25 07:33:15;;;;;;;0.65;0.50;;;10.40;81.60;;;;;;4971679;28;20562;-39
2020/12/25 07:35:41;;;;;;;0.50;0.40;;;10.40;81.60;;;;;;4971322;28;20129;-44
2020/12/25 07:38:07;;;;;;;0.57;0.50;;;10.40;81.60;;;;;;4970794;28;20062;-46
2020/12/25 07:40:34;;;;;;;1.30;0.57;;;10.40;81.60;;;;;;4970508;28;20097;-38
2020/12/25 07:43:03;;;;;;;1.05;0.80;;;10.40;81.60;;;;;;4971724;28;20047;-42
2020/12/25 07:45:33;;;;;;;0.32;0.30;;;10.40;81.60;;;;;;4972064;28;20055;-40
2020/12/25 07:47:59;;;;;;;1.17;0.52;;;10.40;81.60;;;;;;4980622;28;20543;-41
2020/12/25 07:50:25;;;;;;;2.95;0.70;;;10.40;81.60;;;;;;5009825;28;20046;-41
2020/12/25 07:52:51;;;;;;;0.80;0.40;;;10.40;81.60;;;;;;5016191;28;20045;-47
2020/12/25 07:55:18;;;;;;;3.78;1.02;;;10.40;81.60;;;;;;5018930;28;20483;-46
2020/12/25 07:57:47;;;;;;;1.30;0.68;;;10.40;81.60;;;;;;5001971;28;20381;-40
2020/12/25 08:00:14;;;;;;;1.50;0.60;;;10.40;81.60;;;;;;4999822;28;20515;-40
2020/12/25 08:02:42;;;;;;;0.40;0.40;;;10.40;81.60;;;;;;5001893;28;20046;-44
2020/12/25 08:05:10;;;;;;;0.55;0.50;;;10.40;81.60;;;;;;5004815;28;20057;-41
2020/12/25 08:07:41;;;;;;;0.63;0.50;;;10.40;81.60;;;;;;5011990;28;20406;-44
2020/12/25 08:10:11;;;;;;;0.90;0.63;;;10.40;81.60;;;;;;5019744;28;20128;-41
2020/12/25 08:12:44;;;;;;;1.45;0.50;;;10.40;81.50;;;;;;5019681;28;20046;-43
2020/12/25 08:15:12;;;;;;;0.68;0.50;;;10.40;81.60;;;;;;5017594;28;20387;-42
2020/12/25 08:17:38;;;;;;;0.73;0.50;;;10.40;81.60;;;;;;5019300;28;20084;-44
2020/12/25 08:20:04;;;;;;;1.48;0.55;;;10.40;81.60;;;;;;5019238;28;20069;-43
2020/12/25 08:22:30;;;;;;;1.35;0.82;;;10.40;81.50;;;;;;5019237;28;20057;-41
2020/12/25 08:24:58;;;;;;;0.90;0.68;;;10.40;81.60;;;;;;5015712;28;20486;-41
2020/12/25 08:27:31;;;;;;;1.88;0.57;;;10.40;81.50;;;;;;5026633;28;20053;-41
2020/12/25 08:30:00;;;;;;;1.35;0.55;;;10.40;81.50;;;;;;5038591;28;20049;-41
2020/12/25 08:32:29;;;;;;;1.08;0.40;;;10.40;81.50;;;;;;5039139;28;20076;-44
2020/12/25 08:35:14;;;;;;;0.63;0.32;;;10.40;81.50;;;;;;5038844;28;20486;-44
2020/12/25 08:37:51;;;;;;;2.27;0.60;;;10.40;81.50;;;;;;5038915;28;20056;-45
2020/12/25 08:40:17;;;;;;;1.23;0.63;;;10.40;81.50;;;;;;5038988;28;20156;-42
2020/12/25 08:42:42;;;;;;;0.80;0.60;;;10.30;81.50;;;;;;5038688;28;20080;-45
2020/12/25 08:45:09;;;;;;;1.80;0.57;;;10.40;81.50;;;;;;5039053;28;20406;-45
2020/12/25 08:47:35;;;;;;;3.65;0.60;;;10.40;81.50;;;;;;5038762;28;20077;-40
2020/12/25 08:50:02;;;;;;;1.08;0.60;;;10.40;81.50;;;;;;5038929;28;20510;-42
2020/12/25 08:52:29;;;;;;;1.38;0.50;;;10.40;81.50;;;;;;5033085;28;20084;-41
2020/12/25 08:54:56;;;;;;;2.00;0.60;;;10.40;81.50;;;;;;5023418;28;20042;-39
2020/12/25 08:57:22;;;;;;;2.42;0.80;;;10.40;81.50;;;;;;5027619;28;20049;-38
2020/12/25 08:59:47;;;;;;;1.20;0.60;;;10.40;81.50;;;;;;5038661;28;20046;-36
2020/12/25 09:02:15;;;;;;;1.60;0.60;;;10.40;81.50;;;;;;5038515;28;20049;-38
2020/12/25 09:04:40;;;;;;;1.52;0.50;;;10.40;81.50;;;;;;5036203;28;20068;-39
2020/12/25 09:07:06;;;;;;;1.85;0.57;;;10.30;81.50;;;;;;5035839;28;20054;-39
2020/12/25 09:09:32;;;;;;;0.65;0.65;;;10.30;81.50;;;;;;5035500;28;20057;-40
2020/12/25 09:11:57;;;;;;;1.55;0.68;;;10.30;81.50;;;;;;5035442;28;20049;-41
2020/12/25 09:14:23;;;;;;;0.77;0.52;;;10.30;81.50;;;;;;5035447;28;20053;-38
2020/12/25 09:16:49;;;;;;;2.45;0.60;;;10.30;81.50;;;;;;5035599;28;20100;-40
2020/12/25 09:19:14;;;;;;;0.88;0.63;;;10.30;82.10;;;;;;5035638;28;20045;-43
2020/12/25 09:21:40;;;;;;;0.77;0.50;;;10.30;81.50;;;;;;5035365;28;20532;-40
2020/12/25 09:24:06;;;;;;;0.82;0.63;;;10.30;81.50;;;;;;5035086;28;20042;-41
2020/12/25 09:26:31;;;;;;;1.15;0.80;;;10.30;81.50;;;;;;5035141;28;20103;-39
2020/12/25 09:28:57;;;;;;;0.50;0.47;;;10.30;81.50;;;;;;5035384;28;20045;-39
2020/12/25 09:31:23;;;;;;;1.08;0.60;;;10.40;81.50;;;;;;5035089;28;20481;-38
2020/12/25 09:33:49;;;;;;;1.85;0.60;;;10.30;81.50;;;;;;5035287;28;20049;-39
2020/12/25 09:36:15;;;;;;;1.05;0.50;;;10.30;81.50;;;;;;5035428;28;20496;-40
2020/12/25 09:38:44;;;;;;;0.45;0.40;;;10.30;81.50;;;;;;5035357;28;20072;-38
2020/12/25 09:41:12;;;;;;;3.47;0.55;;;10.30;81.50;;;;;;5035033;28;20096;-39
2020/12/25 09:43:38;;;;;;;1.02;0.80;;;10.30;82.20;;;;;;5035068;28;20045;-39
2020/12/25 09:46:04;;;;;;;2.92;0.90;;;10.30;81.60;;;;;;5034935;28;20513;-39
2020/12/25 09:48:30;;;;;;;0.68;0.47;;;10.30;81.50;;;;;;5034956;28;20049;-39
2020/12/25 09:50:55;;;;;;;0.90;0.52;;;10.30;81.50;;;;;;5033743;28;20474;-39
2020/12/25 09:53:21;;;;;;;1.23;0.57;;;10.30;81.50;;;;;;5031200;28;20486;-39
2020/12/25 09:55:50;;;;;;;0.50;0.50;;;10.30;81.50;;;;;;5033661;28;20049;-37
2020/12/25 09:58:16;;;;;;;2.10;0.70;;;10.30;81.50;;;;;;5034120;28;20124;-39
2020/12/25 10:00:42;;;;;;;0.63;0.40;;;10.30;81.50;;;;;;5034078;28;20054;-38
2020/12/25 10:03:07;;;;;;;0.98;0.60;;;10.30;81.50;;;;;;5033957;28;20045;-39
2020/12/25 10:05:33;;;;;;;0.50;0.50;;;10.30;81.50;;;;;;5034028;28;20095;-40
2020/12/25 10:07:59;;;;;;;0.98;0.60;;;10.30;81.50;;;;;;5032492;28;20049;-39
2020/12/25 10:10:25;;;;;;;1.55;0.63;;;10.30;81.50;;;;;;5010426;28;20140;-38
2020/12/25 10:12:52;;;;;;;0.73;0.57;;;10.30;81.50;;;;;;5008750;28;20062;-37
2020/12/25 10:15:19;;;;;;;0.50;0.50;;;10.30;81.50;;;;;;5008293;28;20050;-38
2020/12/25 10:17:44;;;;;;;1.35;0.50;;;10.30;81.40;;;;;;5009212;28;20132;-43
2020/12/25 10:20:10;;;;;;;1.42;0.75;;;10.30;81.50;;;;;;5009017;28;20850;-39
2020/12/25 10:22:36;;;;;;;0.85;0.60;;;10.30;81.50;;;;;;5021773;28;20053;-36
2020/12/25 10:25:02;;;;;;;0.73;0.73;;;10.30;81.50;;;;;;5027943;28;20275;-37
2020/12/25 10:27:28;;;;;;;1.80;0.70;;;10.30;81.40;;;;;;5028525;28;20060;-39
2020/12/25 10:29:54;;;;;;;1.60;0.70;;;10.30;81.40;;;;;;5028101;28;20510;-36
2020/12/25 10:32:19;;;;;;;2.35;0.50;;;10.30;81.40;;;;;;5028549;28;20053;-37
2020/12/25 10:34:45;;;;;;;0.63;0.52;;;10.30;81.40;;;;;;5028242;28;20161;-38
2020/12/25 10:37:11;;;;;;;1.13;0.43;;;10.30;81.40;;;;;;5028391;28;20146;-37
2020/12/25 10:39:40;;;;;;;0.75;0.70;;;10.30;81.40;;;;;;5028704;28;20049;-39
2020/12/25 10:42:14;;;;;;;1.17;0.47;;;10.30;81.40;;;;;;5027276;28;20168;-40
2020/12/25 10:44:40;;;;;;;1.50;0.45;;;10.30;81.40;;;;;;5028379;28;20053;-41
2020/12/25 10:47:06;;;;;;;0.47;0.47;;;10.30;81.40;;;;;;5027224;28;20417;-39
2020/12/25 10:49:32;;;;;;;0.73;0.43;;;10.30;81.40;;;;;;5024921;28;20053;-38
2020/12/25 10:51:58;;;;;;;0.93;0.60;;;10.30;81.40;;;;;;5016540;28;20050;-39
2020/12/25 10:54:23;;;;;;;1.00;0.60;;;10.30;81.40;;;;;;5028315;28;20108;-38
2020/12/25 10:56:50;;;;;;;1.20;0.52;;;10.30;81.50;;;;;;5027446;28;20045;-38
2020/12/25 10:59:16;;;;;;;0.43;0.32;;;10.30;81.40;;;;;;5027628;28;20057;-46
2020/12/25 11:01:46;;;;;;;2.45;0.80;;;10.30;81.40;;;;;;5028194;28;20053;-44
2020/12/25 11:04:12;;;;;;;1.48;0.80;;;10.30;81.40;;;;;;5027977;28;20053;-38
2020/12/25 11:06:38;;;;;;;0.60;0.45;;;10.30;81.40;;;;;;5028137;28;20053;-41
2020/12/25 11:09:06;;;;;;;1.33;0.50;;;10.30;81.40;;;;;;5027338;28;20386;-40
2020/12/25 11:11:34;;;;;;;0.38;0.38;;;10.30;81.40;;;;;;5027263;28;20391;-40
2020/12/25 11:14:00;;;;;;;1.13;0.60;;;10.30;81.40;;;;;;5027299;28;20053;-38
2020/12/25 11:16:28;;;;;;;1.63;0.50;;;10.30;81.40;;;;;;5027952;28;20053;-39
2020/12/25 11:18:55;;;;;;;0.63;0.40;;;10.40;81.40;;;;;;5027215;28;20060;-39
2020/12/25 11:21:25;;;;;;;1.23;0.60;;;10.30;81.40;;;;;;5027944;28;20057;-38
2020/12/25 11:23:52;;;;;;;1.05;0.50;;;10.30;81.30;;;;;;5026838;28;20475;-39
2020/12/25 11:26:24;;;;;;;1.67;0.50;;;10.30;81.30;;;;;;5027715;28;20060;-39
2020/12/25 11:28:50;;;;;;;0.75;0.50;;;10.40;81.40;;;;;;5027008;28;20053;-39
2020/12/25 11:31:17;;;;;;;1.10;0.45;;;10.30;81.30;;;;;;5027504;28;20050;-39
2020/12/25 11:33:43;;;;;;;1.17;0.63;;;10.40;81.40;;;;;;5027420;28;20141;-36
2020/12/25 11:36:17;;;;;;;0.40;0.40;;;10.40;81.40;;;;;;5026962;28;20159;-39
2020/12/25 11:38:44;;;;;;;1.65;0.40;;;10.30;81.40;;;;;;5027541;28;20053;-37
2020/12/25 11:41:11;;;;;;;0.60;0.47;;;10.40;81.40;;;;;;5026828;28;20053;-39
2020/12/25 11:43:37;;;;;;;1.27;0.60;;;10.30;81.30;;;;;;5031343;28;20103;-39
2020/12/25 11:46:05;;;;;;;1.45;0.60;;;10.40;81.40;;;;;;5031124;28;20060;-40
2020/12/25 11:48:32;;;;;;;1.17;0.40;;;10.30;81.90;;;;;;5031744;28;20455;-43
2020/12/25 11:50:58;;;;;;;0.80;0.60;;;10.30;81.30;;;;;;5013298;28;20488;-40
2020/12/25 11:53:24;;;;;;;0.93;0.60;;;10.30;81.30;;;;;;5031799;28;20056;-43
2020/12/25 11:55:50;;;;;;;1.40;0.70;;;10.40;81.30;;;;;;5031165;28;20042;-41
2020/12/25 11:58:16;;;;;;;0.70;0.50;;;10.40;81.30;;;;;;5031610;28;20452;-43
2020/12/25 12:00:42;;;;;;;0.50;0.43;;;10.30;81.20;;;;;;5031730;28;20083;-44
2020/12/25 12:03:09;;;;;;;0.40;0.40;;;10.40;81.30;;;;;;5032362;28;20056;-40
2020/12/25 12:05:34;;;;;;;0.40;0.40;;;10.40;81.30;;;;;;5032659;28;20103;-44
2020/12/25 12:08:00;;;;;;;0.82;0.52;;;10.40;81.30;;;;;;5031162;28;20057;-43
2020/12/25 12:10:26;;;;;;;1.85;0.70;;;10.30;81.20;;;;;;5032758;28;20053;-40
2020/12/25 12:12:52;;;;;;;1.15;0.60;;;10.40;81.30;;;;;;5021364;28;20042;-42
2020/12/25 12:15:17;;;;;;;0.40;0.40;;;10.40;81.30;;;;;;4994809;28;20049;-42
2020/12/25 12:17:43;;;;;;;1.73;0.57;;;10.40;81.20;;;;;;5012949;28;20046;-45
2020/12/25 12:20:09;;;;;;;0.65;0.50;;;10.40;81.30;;;;;;5014122;28;20410;-40
2020/12/25 12:22:35;;;;;;;1.92;0.40;;;10.40;81.30;;;;;;5012711;28;20116;-40
2020/12/25 12:25:07;;;;;;;0.70;0.50;;;10.40;81.30;;;;;;5013099;28;20133;-40
2020/12/25 12:27:33;;;;;;;0.93;0.60;;;10.40;81.30;;;;;;5012434;28;20061;-42
2020/12/25 12:30:01;;;;;;;1.27;0.40;;;10.40;81.30;;;;;;5013309;28;20053;-45
2020/12/25 12:32:27;;;;;;;0.68;0.40;;;10.40;81.30;;;;;;5012943;28;20046;-45
2020/12/25 12:34:52;;;;;;;0.50;0.40;;;10.40;81.30;;;;;;5012660;28;20104;-41
2020/12/25 12:37:18;;;;;;;0.95;0.63;;;10.40;81.30;;;;;;5012738;28;20042;-43
2020/12/25 12:39:44;;;;;;;0.60;0.43;;;10.40;81.20;;;;;;5016254;28;20046;-41
2020/12/25 12:42:09;;;;;;;0.88;0.50;;;10.40;81.20;;;;;;5016234;28;20046;-42
2020/12/25 12:44:35;;;;;;;0.65;0.50;;;10.40;81.20;;;;;;5016105;28;20081;-43
2020/12/25 12:47:01;;;;;;;2.05;0.85;;;10.40;81.20;;;;;;5016165;28;20129;-41